createdAt,value
2018-08-13T00:00:03.792Z,100713.83
2018-08-13T00:00:25.663Z,100711.20
2018-08-13T00:00:47.687Z,100712.51
2018-08-13T00:01:09.562Z,100704.63
2018-08-13T00:01:31.343Z,100707.25
2018-08-13T00:01:53.208Z,100706.34
2018-08-13T00:02:14.972Z,100701.08
2018-08-13T00:02:36.730Z,100705.53
2018-08-13T00:02:58.494Z,100702.80
2018-08-13T00:03:20.327Z,100699.36
2018-08-13T00:03:43.153Z,100705.53
2018-08-13T00:04:04.917Z,100709.88
2018-08-13T00:04:26.713Z,100706.74
2018-08-13T00:04:48.479Z,100711.20
2018-08-13T00:05:10.250Z,100706.74
2018-08-13T00:05:32.016Z,100709.37
2018-08-13T00:05:53.979Z,100706.74
2018-08-13T00:06:15.786Z,100705.94
2018-08-13T00:06:37.552Z,100705.02
2018-08-13T00:06:59.351Z,100709.88
2018-08-13T00:07:21.128Z,100703.70
2018-08-13T00:07:43.051Z,100711.59
2018-08-13T00:08:05.055Z,100705.42
2018-08-13T00:08:27.001Z,100705.94
2018-08-13T00:08:48.760Z,100708.97
2018-08-13T00:09:10.521Z,100702.91
2018-08-13T00:09:37.791Z,100706.34
2018-08-13T00:10:03.812Z,100709.48
2018-08-13T00:10:25.813Z,100697.13
2018-08-13T00:10:47.671Z,100699.77
2018-08-13T00:11:09.414Z,100700.27
2018-08-13T00:11:31.186Z,100695.41
2018-08-13T00:11:52.952Z,100699.77
2018-08-13T00:12:14.720Z,100703.70
2018-08-13T00:12:36.612Z,100703.30
2018-08-13T00:12:58.371Z,100697.53
2018-08-13T00:13:20.114Z,100707.25
2018-08-13T00:13:41.870Z,100698.95
2018-08-13T00:14:03.634Z,100705.94
2018-08-13T00:14:25.399Z,100697.94
2018-08-13T00:14:47.471Z,100705.02
2018-08-13T00:15:09.254Z,100694.50
2018-08-13T00:15:31.013Z,100698.45
2018-08-13T00:15:52.758Z,100700.67
2018-08-13T00:16:14.521Z,100701.08
2018-08-13T00:16:36.312Z,100705.94
2018-08-13T00:16:58.143Z,100695.82
2018-08-13T00:17:19.919Z,100706.34
2018-08-13T00:17:41.717Z,100693.59
2018-08-13T00:18:03.475Z,100694.10
2018-08-13T00:18:25.229Z,100698.85
2018-08-13T00:18:46.983Z,100701.99
2018-08-13T00:19:09.034Z,100699.77
2018-08-13T00:19:31.323Z,100698.45
2018-08-13T00:19:53.074Z,100702.39
2018-08-13T00:20:14.870Z,100705.02
2018-08-13T00:20:36.788Z,100701.48
2018-08-13T00:20:58.548Z,100695.41
2018-08-13T00:21:20.286Z,100698.85
2018-08-13T00:21:42.078Z,100695.82
2018-08-13T00:22:04.229Z,100698.85
2018-08-13T00:22:25.985Z,100694.91
2018-08-13T00:22:47.755Z,100694.91
2018-08-13T00:23:09.771Z,100698.05
2018-08-13T00:23:31.924Z,100697.13
2018-08-13T00:23:53.675Z,100698.45
2018-08-13T00:24:15.442Z,100691.88
2018-08-13T00:24:37.200Z,100687.02
2018-08-13T00:24:58.942Z,100690.56
2018-08-13T00:25:20.744Z,100693.19
2018-08-13T00:25:42.908Z,100690.96
2018-08-13T00:26:04.670Z,100690.45
2018-08-13T00:26:26.463Z,100688.33
2018-08-13T00:26:48.240Z,100690.96
2018-08-13T00:27:09.986Z,100689.65
2018-08-13T00:27:31.857Z,100687.42
2018-08-13T00:27:54.104Z,100687.02
2018-08-13T00:28:15.864Z,100687.93
2018-08-13T00:28:37.629Z,100689.24
2018-08-13T00:28:59.396Z,100689.65
2018-08-13T00:29:21.155Z,100687.02
2018-08-13T00:29:43.255Z,100690.16
2018-08-13T00:30:05.037Z,100688.33
2018-08-13T00:30:26.792Z,100688.33
2018-08-13T00:30:48.556Z,100688.33
2018-08-13T00:31:10.328Z,100691.36
2018-08-13T00:31:32.092Z,100691.88
2018-08-13T00:31:54.042Z,100691.06
2018-08-13T00:32:15.793Z,100688.73
2018-08-13T00:32:37.551Z,100685.30
2018-08-13T00:32:59.303Z,100688.33
2018-08-13T00:33:21.057Z,100683.47
2018-08-13T00:33:42.824Z,100689.65
2018-08-13T00:34:04.713Z,100688.73
2018-08-13T00:34:26.795Z,100685.70
2018-08-13T00:34:48.552Z,100686.10
2018-08-13T00:35:10.304Z,100687.93
2018-08-13T00:35:32.043Z,100683.98
2018-08-13T00:35:54.809Z,100685.30
2018-08-13T00:36:16.591Z,100678.22
2018-08-13T00:36:38.349Z,100683.07
2018-08-13T00:37:00.127Z,100682.16
2018-08-13T00:37:21.892Z,100679.53
2018-08-13T00:37:43.645Z,100679.53
2018-08-13T00:38:05.647Z,100687.02
2018-08-13T00:38:27.432Z,100681.76
2018-08-13T00:38:49.190Z,100680.84
2018-08-13T00:39:12.827Z,100681.76
2018-08-13T00:39:34.583Z,100681.76
2018-08-13T00:39:56.337Z,100680.84
2018-08-13T00:40:19.101Z,100679.53
2018-08-13T00:40:40.864Z,100684.39
2018-08-13T00:41:02.637Z,100681.76
2018-08-13T00:41:24.383Z,100681.76
2018-08-13T00:41:46.158Z,100675.59
2018-08-13T00:42:08.012Z,100679.12
2018-08-13T00:42:29.758Z,100678.22
2018-08-13T00:42:51.524Z,100675.59
2018-08-13T00:43:13.303Z,100677.41
2018-08-13T00:43:35.070Z,100673.36
2018-08-13T00:43:56.825Z,100670.73
2018-08-13T00:44:18.828Z,100674.27
2018-08-13T00:44:40.984Z,100675.19
2018-08-13T00:45:02.773Z,100669.41
2018-08-13T00:45:24.541Z,100671.64
2018-08-13T00:45:46.296Z,100672.95
2018-08-13T00:46:08.062Z,100668.61
2018-08-13T00:46:29.975Z,100665.98
2018-08-13T00:46:51.726Z,100669.01
2018-08-13T00:47:13.511Z,100667.30
2018-08-13T00:47:35.275Z,100673.87
2018-08-13T00:47:57.071Z,100676.50
2018-08-13T00:48:18.810Z,100666.78
2018-08-13T00:48:40.566Z,100667.70
2018-08-13T00:49:02.640Z,100669.92
2018-08-13T00:49:24.418Z,100667.70
2018-08-13T00:49:46.188Z,100670.84
2018-08-13T00:50:07.949Z,100671.23
2018-08-13T00:50:29.718Z,100671.23
2018-08-13T00:50:51.923Z,100666.38
2018-08-13T00:51:13.679Z,100671.23
2018-08-13T00:51:36.050Z,100666.89
2018-08-13T00:51:57.802Z,100672.15
2018-08-13T00:52:19.583Z,100673.36
2018-08-13T00:52:41.912Z,100667.70
2018-08-13T00:53:03.655Z,100665.47
2018-08-13T00:53:25.413Z,100666.78
2018-08-13T00:53:47.189Z,100671.23
2018-08-13T00:54:08.955Z,100671.64
2018-08-13T00:54:30.724Z,100664.66
2018-08-13T00:54:52.515Z,100668.20
2018-08-13T00:55:15.162Z,100667.30
2018-08-13T00:55:36.923Z,100670.33
2018-08-13T00:55:58.683Z,100662.03
2018-08-13T00:56:20.475Z,100666.78
2018-08-13T00:56:42.249Z,100664.66
2018-08-13T00:57:04.297Z,100665.06
2018-08-13T00:57:26.107Z,100666.78
2018-08-13T00:57:47.872Z,100663.75
2018-08-13T00:58:09.661Z,100669.01
2018-08-13T00:58:31.428Z,100667.70
2018-08-13T00:58:53.194Z,100666.38
2018-08-13T00:59:15.448Z,100664.27
2018-08-13T00:59:37.387Z,100667.30
2018-08-13T00:59:59.139Z,100659.80
2018-08-13T01:00:21.281Z,100661.13
2018-08-13T01:00:43.027Z,100659.80
2018-08-13T01:01:04.930Z,100664.27
2018-08-13T01:01:26.878Z,100666.38
2018-08-13T01:01:48.639Z,100662.44
2018-08-13T01:02:10.808Z,100665.06
2018-08-13T01:02:32.578Z,100661.13
2018-08-13T01:02:54.346Z,100665.98
2018-08-13T01:03:16.313Z,100662.84
2018-08-13T01:03:38.070Z,100662.84
2018-08-13T01:03:59.827Z,100660.20
2018-08-13T01:04:21.589Z,100667.30
2018-08-13T01:04:43.356Z,100665.06
2018-08-13T01:05:05.118Z,100663.75
2018-08-13T01:05:27.180Z,100661.52
2018-08-13T01:05:49.175Z,100660.20
2018-08-13T01:06:10.922Z,100662.03
2018-08-13T01:06:32.692Z,100661.52
2018-08-13T01:06:54.463Z,100662.44
2018-08-13T01:07:16.244Z,100660.20
2018-08-13T01:07:38.638Z,100659.80
2018-08-13T01:08:00.533Z,100660.20
2018-08-13T01:08:22.310Z,100658.89
2018-08-13T01:08:44.066Z,100662.44
2018-08-13T01:09:05.827Z,100657.07
2018-08-13T01:09:27.591Z,100658.89
2018-08-13T01:09:49.635Z,100660.20
2018-08-13T01:10:12.108Z,100655.46
2018-08-13T01:10:33.878Z,100661.13
2018-08-13T01:10:55.653Z,100660.20
2018-08-13T01:11:17.409Z,100656.27
2018-08-13T01:11:39.343Z,100657.17
2018-08-13T01:12:01.186Z,100658.89
2018-08-13T01:12:23.056Z,100656.27
2018-08-13T01:12:45.008Z,100660.20
2018-08-13T01:13:06.785Z,100660.61
2018-08-13T01:13:28.530Z,100658.89
2018-08-13T01:14:18.428Z,100659.80
2018-08-13T01:14:40.175Z,100662.84
2018-08-13T01:15:02.173Z,100663.64
2018-08-13T01:15:23.930Z,100661.92
2018-08-13T01:15:45.701Z,100663.24
2018-08-13T01:16:07.459Z,100655.75
2018-08-13T01:16:29.202Z,100661.13
2018-08-13T01:16:51.120Z,100659.30
2018-08-13T01:17:13.439Z,100657.58
2018-08-13T01:17:35.277Z,100659.80
2018-08-13T01:17:57.059Z,100658.49
2018-08-13T01:18:18.813Z,100658.89
2018-08-13T01:18:40.570Z,100661.52
2018-08-13T01:19:02.477Z,100656.27
2018-08-13T01:19:24.558Z,100659.30
2018-08-13T01:19:46.311Z,100658.49
2018-08-13T01:20:08.254Z,100662.44
2018-08-13T01:20:30.016Z,100654.95
2018-08-13T01:20:51.779Z,100653.63
2018-08-13T01:21:13.731Z,100654.14
2018-08-13T01:21:35.486Z,100652.32
2018-08-13T01:21:57.247Z,100655.86
2018-08-13T01:22:19.023Z,100655.86
2018-08-13T01:22:40.775Z,100656.16
2018-08-13T01:23:02.560Z,100659.41
2018-08-13T01:23:24.428Z,100657.17
2018-08-13T01:23:46.180Z,100660.72
2018-08-13T01:24:07.952Z,100657.58
2018-08-13T01:24:29.705Z,100653.63
2018-08-13T01:24:51.464Z,100657.17
2018-08-13T01:25:14.415Z,100653.63
2018-08-13T01:25:36.204Z,100652.32
2018-08-13T01:25:57.980Z,100651.00
2018-08-13T01:26:19.738Z,100654.03
2018-08-13T01:26:41.498Z,100654.03
2018-08-13T01:27:03.250Z,100660.20
2018-08-13T01:27:31.037Z,100654.03
2018-08-13T01:27:52.779Z,100655.35
2018-08-13T01:28:14.558Z,100654.55
2018-08-13T01:28:36.522Z,100654.95
2018-08-13T01:28:58.339Z,100658.49
2018-08-13T01:29:20.106Z,100652.32
2018-08-13T01:29:41.842Z,100654.55
2018-08-13T01:30:03.604Z,100654.03
2018-08-13T01:30:25.365Z,100652.83
2018-08-13T01:30:47.354Z,100654.95
2018-08-13T01:31:09.275Z,100650.09
2018-08-13T01:31:31.035Z,100653.23
2018-08-13T01:31:52.813Z,100654.55
2018-08-13T01:32:14.575Z,100651.41
2018-08-13T01:32:36.334Z,100658.49
2018-08-13T01:32:58.277Z,100651.91
2018-08-13T01:33:20.185Z,100651.00
2018-08-13T01:33:41.924Z,100651.91
2018-08-13T01:34:03.683Z,100645.23
2018-08-13T01:34:25.428Z,100651.91
2018-08-13T01:34:47.187Z,100654.55
2018-08-13T01:35:09.278Z,100646.55
2018-08-13T01:35:31.021Z,100647.47
2018-08-13T01:35:52.778Z,100652.72
2018-08-13T01:36:14.552Z,100648.78
2018-08-13T01:36:36.305Z,100651.41
2018-08-13T01:36:58.067Z,100654.03
2018-08-13T01:37:20.359Z,100652.72
2018-08-13T01:37:42.104Z,100651.81
2018-08-13T01:38:03.850Z,100650.60
2018-08-13T01:38:25.624Z,100652.72
2018-08-13T01:38:47.381Z,100649.19
2018-08-13T01:39:10.422Z,100650.50
2018-08-13T01:39:32.353Z,100648.78
2018-08-13T01:39:54.265Z,100648.78
2018-08-13T01:40:16.037Z,100647.06
2018-08-13T01:40:37.806Z,100651.41
2018-08-13T01:40:59.557Z,100651.00
2018-08-13T01:41:21.304Z,100651.41
2018-08-13T01:41:43.163Z,100650.09
2018-08-13T01:42:04.916Z,100651.41
2018-08-13T01:42:26.678Z,100651.00
2018-08-13T01:42:48.414Z,100647.06
2018-08-13T01:43:10.161Z,100647.06
2018-08-13T01:43:32.377Z,100649.69
2018-08-13T01:43:54.146Z,100657.58
2018-08-13T01:44:15.905Z,100651.41
2018-08-13T01:44:37.671Z,100650.09
2018-08-13T01:44:59.440Z,100644.83
2018-08-13T01:45:21.194Z,100643.92
2018-08-13T01:45:43.380Z,100645.23
2018-08-13T01:46:05.140Z,100648.78
2018-08-13T01:46:26.891Z,100644.83
2018-08-13T01:46:48.678Z,100647.06
2018-08-13T01:47:10.464Z,100650.09
2018-08-13T01:47:32.227Z,100646.15
2018-08-13T01:47:54.536Z,100647.47
2018-08-13T01:48:16.299Z,100643.52
2018-08-13T01:48:38.079Z,100647.06
2018-08-13T01:48:59.840Z,100651.00
2018-08-13T01:49:21.592Z,100650.09
2018-08-13T01:49:43.342Z,100651.41
2018-08-13T01:50:05.434Z,100646.15
2018-08-13T01:50:27.179Z,100652.72
2018-08-13T01:50:48.936Z,100648.38
2018-08-13T01:51:10.721Z,100652.72
2018-08-13T01:51:32.474Z,100651.41
2018-08-13T01:51:54.237Z,100647.47
2018-08-13T01:52:16.910Z,100647.47
2018-08-13T01:52:38.666Z,100649.19
2018-08-13T01:53:00.425Z,100651.81
2018-08-13T01:53:22.211Z,100650.09
2018-08-13T01:53:43.989Z,100647.87
2018-08-13T01:54:06.125Z,100645.23
2018-08-13T01:54:28.090Z,100647.47
2018-08-13T01:54:49.838Z,100648.78
2018-08-13T01:55:11.970Z,100643.11
2018-08-13T01:55:33.718Z,100643.52
2018-08-13T01:55:55.465Z,100647.06
2018-08-13T01:56:17.559Z,100644.83
2018-08-13T01:56:39.322Z,100644.83
2018-08-13T01:57:01.089Z,100646.15
2018-08-13T01:57:22.850Z,100639.58
2018-08-13T01:57:44.617Z,100642.61
2018-08-13T01:58:06.366Z,100641.80
2018-08-13T01:58:28.481Z,100637.75
2018-08-13T01:58:50.296Z,100639.58
2018-08-13T01:59:12.057Z,100640.89
2018-08-13T01:59:33.806Z,100638.27
2018-08-13T01:59:55.555Z,100640.89
2018-08-13T02:00:17.529Z,100638.27
2018-08-13T02:00:39.386Z,100636.03
2018-08-13T02:01:01.136Z,100638.66
2018-08-13T02:01:22.949Z,100636.44
2018-08-13T02:01:44.737Z,100635.12
2018-08-13T02:02:06.434Z,100638.66
2018-08-13T02:02:28.202Z,100638.66
2018-08-13T02:02:50.743Z,100646.55
2018-08-13T02:03:12.515Z,100639.98
2018-08-13T02:03:34.279Z,100636.44
2018-08-13T02:03:56.079Z,100638.66
2018-08-13T02:04:17.834Z,100640.89
2018-08-13T02:04:39.698Z,100636.44
2018-08-13T02:05:01.977Z,100634.21
2018-08-13T02:05:23.746Z,100636.44
2018-08-13T02:05:45.490Z,100636.44
2018-08-13T02:06:07.304Z,100639.98
2018-08-13T02:06:29.071Z,100641.30
2018-08-13T02:06:51.040Z,100642.20
2018-08-13T02:07:12.812Z,100639.06
2018-08-13T02:07:34.554Z,100640.89
2018-08-13T02:07:56.298Z,100633.80
2018-08-13T02:08:18.051Z,100635.12
2018-08-13T02:08:39.824Z,100639.06
2018-08-13T02:09:02.015Z,100640.38
2018-08-13T02:09:28.154Z,100631.17
2018-08-13T02:09:49.919Z,100639.98
2018-08-13T02:10:11.784Z,100640.89
2018-08-13T02:10:34.387Z,100639.98
2018-08-13T02:10:56.142Z,100641.70
2018-08-13T02:11:17.914Z,100642.61
2018-08-13T02:11:39.666Z,100636.44
2018-08-13T02:12:02.143Z,100642.20
2018-08-13T02:12:24.021Z,100639.98
2018-08-13T02:12:45.770Z,100635.12
2018-08-13T02:13:07.523Z,100639.98
2018-08-13T02:13:29.288Z,100636.03
2018-08-13T02:13:51.067Z,100641.80
2018-08-13T02:14:12.855Z,100644.83
2018-08-13T02:14:34.829Z,100639.58
2018-08-13T02:14:56.583Z,100635.12
2018-08-13T02:15:18.344Z,100641.30
2018-08-13T02:15:40.108Z,100642.61
2018-08-13T02:16:01.884Z,100639.58
2018-08-13T02:16:23.641Z,100638.66
2018-08-13T02:16:45.709Z,100641.30
2018-08-13T02:17:07.476Z,100641.70
2018-08-13T02:17:29.229Z,100639.98
2018-08-13T02:17:50.974Z,100638.66
2018-08-13T02:18:12.767Z,100636.03
2018-08-13T02:18:34.524Z,100641.70
2018-08-13T02:18:56.314Z,100635.12
2018-08-13T02:19:18.119Z,100636.44
2018-08-13T02:19:39.877Z,100636.44
2018-08-13T02:20:01.644Z,100635.12
2018-08-13T02:20:23.421Z,100636.44
2018-08-13T02:20:45.183Z,100636.03
2018-08-13T02:21:07.434Z,100633.41
2018-08-13T02:21:29.189Z,100634.72
2018-08-13T02:21:50.974Z,100634.21
2018-08-13T02:22:12.732Z,100630.77
2018-08-13T02:22:34.488Z,100625.52
2018-08-13T02:22:56.256Z,100634.72
2018-08-13T02:23:18.623Z,100632.49
2018-08-13T02:23:47.308Z,100633.41
2018-08-13T02:24:09.552Z,100631.17
2018-08-13T02:24:31.353Z,100627.63
2018-08-13T02:24:53.115Z,100631.17
2018-08-13T02:25:14.875Z,100628.14
2018-08-13T02:25:36.645Z,100630.77
2018-08-13T02:25:58.770Z,100626.83
2018-08-13T02:26:20.650Z,100628.55
2018-08-13T02:26:42.411Z,100628.55
2018-08-13T02:27:04.164Z,100628.14
2018-08-13T02:27:25.927Z,100624.60
2018-08-13T02:27:47.674Z,100625.00
2018-08-13T02:28:09.745Z,100626.83
2018-08-13T02:28:31.499Z,100621.06
2018-08-13T02:28:53.425Z,100627.23
2018-08-13T02:29:15.179Z,100625.92
2018-08-13T02:29:36.973Z,100629.46
2018-08-13T02:29:58.728Z,100625.00
2018-08-13T02:30:20.480Z,100625.52
2018-08-13T02:30:42.290Z,100620.66
2018-08-13T02:31:04.054Z,100627.23
2018-08-13T02:31:25.809Z,100618.43
2018-08-13T02:31:48.141Z,100619.34
2018-08-13T02:32:09.909Z,100619.75
2018-08-13T02:32:32.410Z,100616.31
2018-08-13T02:32:54.168Z,100619.34
2018-08-13T02:33:15.956Z,100618.03
2018-08-13T02:33:37.730Z,100616.20
2018-08-13T02:33:59.517Z,100619.34
2018-08-13T02:34:21.318Z,100615.80
2018-08-13T02:34:43.091Z,100618.43
2018-08-13T02:35:04.862Z,100614.08
2018-08-13T02:35:26.621Z,100612.66
2018-08-13T02:35:48.395Z,100615.80
2018-08-13T02:36:10.153Z,100618.03
2018-08-13T02:36:32.143Z,100616.20
2018-08-13T02:36:54.203Z,100618.03
2018-08-13T02:37:15.945Z,100616.71
2018-08-13T02:37:38.451Z,100610.95
2018-08-13T02:38:00.214Z,100616.71
2018-08-13T02:38:21.988Z,100615.80
2018-08-13T02:38:43.804Z,100618.03
2018-08-13T02:39:05.561Z,100615.80
2018-08-13T02:39:27.318Z,100612.37
2018-08-13T02:39:49.100Z,100612.77
2018-08-13T02:40:11.006Z,100611.45
2018-08-13T02:40:32.811Z,100616.71
2018-08-13T02:40:54.966Z,100611.86
2018-08-13T02:41:16.724Z,100608.31
2018-08-13T02:41:38.978Z,100609.23
2018-08-13T02:42:00.728Z,100607.91
2018-08-13T02:42:22.510Z,100610.55
2018-08-13T02:42:44.368Z,100609.23
2018-08-13T02:43:06.559Z,100607.51
2018-08-13T02:43:28.314Z,100606.59
2018-08-13T02:43:50.061Z,100602.14
2018-08-13T02:44:11.819Z,100603.97
2018-08-13T02:44:33.579Z,100600.02
2018-08-13T02:44:55.375Z,100602.66
2018-08-13T02:45:17.160Z,100602.66
2018-08-13T02:45:38.921Z,100603.46
2018-08-13T02:46:00.668Z,100603.97
2018-08-13T02:46:22.412Z,100602.66
2018-08-13T02:46:44.146Z,100606.59
2018-08-13T02:47:05.909Z,100603.97
2018-08-13T02:47:28.288Z,100604.88
2018-08-13T02:47:50.046Z,100605.69
2018-08-13T02:48:11.812Z,100603.06
2018-08-13T02:48:33.576Z,100596.89
2018-08-13T02:48:55.330Z,100600.94
2018-08-13T02:49:17.295Z,100599.52
2018-08-13T02:49:39.052Z,100600.94
2018-08-13T02:50:00.841Z,100603.56
2018-08-13T02:50:22.593Z,100598.20
2018-08-13T02:50:44.341Z,100593.86
2018-08-13T02:51:06.273Z,100593.86
2018-08-13T02:51:28.089Z,100594.26
2018-08-13T02:51:50.014Z,100600.43
2018-08-13T02:52:11.766Z,100598.70
2018-08-13T02:52:33.519Z,100598.30
2018-08-13T02:52:55.267Z,100596.08
2018-08-13T02:53:17.015Z,100596.08
2018-08-13T02:53:38.808Z,100597.39
2018-08-13T02:54:00.988Z,100593.86
2018-08-13T02:54:22.796Z,100587.68
2018-08-13T02:54:44.567Z,100589.00
2018-08-13T02:55:06.356Z,100592.14
2018-08-13T02:55:28.118Z,100594.77
2018-08-13T02:55:50.206Z,100592.94
2018-08-13T02:56:12.175Z,100586.88
2018-08-13T02:56:33.972Z,100589.91
2018-08-13T02:56:55.719Z,100588.19
2018-08-13T02:57:17.474Z,100590.31
2018-08-13T02:57:39.276Z,100592.14
2018-08-13T02:58:01.134Z,100593.86
2018-08-13T02:58:22.855Z,100595.17
2018-08-13T02:58:44.607Z,100587.28
2018-08-13T02:59:06.352Z,100586.77
2018-08-13T02:59:28.107Z,100589.51
2018-08-13T02:59:49.863Z,100588.59
2018-08-13T03:00:11.737Z,100589.91
2018-08-13T03:00:33.487Z,100588.59
2018-08-13T03:00:55.250Z,100590.82
2018-08-13T03:01:17.013Z,100588.59
2018-08-13T03:01:38.773Z,100588.19
2018-08-13T03:02:00.534Z,100584.65
2018-08-13T03:02:22.486Z,100587.28
2018-08-13T03:02:44.876Z,100585.97
2018-08-13T03:03:06.628Z,100585.05
2018-08-13T03:03:28.396Z,100591.62
2018-08-13T03:03:50.156Z,100587.28
2018-08-13T03:04:11.911Z,100588.19
2018-08-13T03:04:33.743Z,100587.28
2018-08-13T03:04:55.628Z,100589.00
2018-08-13T03:05:17.402Z,100590.82
2018-08-13T03:05:39.160Z,100586.37
2018-08-13T03:06:00.924Z,100586.88
2018-08-13T03:06:22.709Z,100589.00
2018-08-13T03:06:44.781Z,100586.77
2018-08-13T03:07:06.538Z,100593.45
2018-08-13T03:07:28.298Z,100589.41
2018-08-13T03:08:18.331Z,100586.77
2018-08-13T03:08:40.092Z,100588.19
2018-08-13T03:09:01.851Z,100588.09
2018-08-13T03:09:23.616Z,100589.00
2018-08-13T03:09:45.591Z,100592.14
2018-08-13T03:10:08.035Z,100585.97
2018-08-13T03:10:29.843Z,100585.45
2018-08-13T03:10:51.602Z,100584.65
2018-08-13T03:11:13.342Z,100588.59
2018-08-13T03:11:35.103Z,100584.65
2018-08-13T03:11:56.876Z,100589.51
2018-08-13T03:12:18.623Z,100588.09
2018-08-13T03:12:40.376Z,100589.41
2018-08-13T03:13:02.137Z,100589.91
2018-08-13T03:13:23.884Z,100588.59
2018-08-13T03:13:45.635Z,100588.59
2018-08-13T03:14:07.390Z,100589.41
2018-08-13T03:14:29.139Z,100585.45
2018-08-13T03:14:51.039Z,100582.42
2018-08-13T03:15:13.279Z,100583.34
2018-08-13T03:15:35.051Z,100581.11
2018-08-13T03:15:56.818Z,100582.94
2018-08-13T03:16:18.770Z,100576.66
2018-08-13T03:16:40.526Z,100578.48
2018-08-13T03:17:02.315Z,100574.53
2018-08-13T03:17:24.078Z,100574.94
2018-08-13T03:17:45.840Z,100575.45
2018-08-13T03:18:07.604Z,100574.03
2018-08-13T03:18:29.743Z,100576.25
2018-08-13T03:18:51.506Z,100575.34
2018-08-13T03:19:13.279Z,100572.71
2018-08-13T03:19:35.039Z,100571.00
2018-08-13T03:24:47.863Z,100566.14
2018-08-13T03:25:09.622Z,100563.51
2018-08-13T03:25:31.384Z,100565.33
2018-08-13T03:25:53.312Z,100564.83
2018-08-13T03:26:15.069Z,100570.08
2018-08-13T03:26:36.834Z,100566.14
2018-08-13T03:26:58.586Z,100568.77
2018-08-13T03:27:20.345Z,100565.23
2018-08-13T03:27:42.325Z,100569.68
2018-08-13T03:28:04.075Z,100559.56
2018-08-13T03:28:25.836Z,100571.00
2018-08-13T03:28:47.600Z,100566.14
2018-08-13T03:29:09.354Z,100567.45
2018-08-13T03:29:31.116Z,100567.45
2018-08-13T03:29:52.903Z,100567.45
2018-08-13T03:30:15.082Z,100566.64
2018-08-13T03:30:36.847Z,100568.37
2018-08-13T03:30:58.615Z,100561.79
2018-08-13T03:31:20.363Z,100566.14
2018-08-13T03:31:42.110Z,100565.33
2018-08-13T03:32:03.896Z,100562.59
2018-08-13T03:32:25.944Z,100562.30
2018-08-13T03:32:47.747Z,100563.11
2018-08-13T03:33:09.524Z,100559.97
2018-08-13T03:33:31.330Z,100568.77
2018-08-13T03:33:53.103Z,100562.59
2018-08-13T03:34:14.884Z,100561.79
2018-08-13T03:34:36.721Z,100565.73
2018-08-13T03:34:58.647Z,100558.66
2018-08-13T03:35:20.419Z,100558.25
2018-08-13T03:35:42.175Z,100556.03
2018-08-13T03:36:03.935Z,100558.66
2018-08-13T03:36:25.825Z,100560.88
2018-08-13T03:36:47.662Z,100563.51
2018-08-13T03:37:09.414Z,100559.56
2018-08-13T03:37:31.173Z,100561.28
2018-08-13T03:37:52.968Z,100560.48
2018-08-13T03:38:14.745Z,100559.97
2018-08-13T03:38:36.650Z,100560.38
2018-08-13T03:38:58.405Z,100559.06
2018-08-13T03:39:20.154Z,100557.34
2018-08-13T03:39:41.891Z,100559.97
2018-08-13T03:40:03.651Z,100555.63
2018-08-13T03:40:25.408Z,100556.94
2018-08-13T03:40:47.256Z,100557.84
2018-08-13T03:41:09.367Z,100553.80
2018-08-13T03:41:31.127Z,100556.53
2018-08-13T03:41:52.900Z,100559.97
2018-08-13T03:42:14.647Z,100563.51
2018-08-13T03:42:36.423Z,100558.25
2018-08-13T03:42:58.375Z,100556.13
2018-08-13T03:43:20.168Z,100554.71
2018-08-13T03:43:41.949Z,100556.94
2018-08-13T03:44:03.700Z,100558.25
2018-08-13T03:44:25.458Z,100550.77
2018-08-13T03:44:47.205Z,100554.71
2018-08-13T03:45:09.356Z,100556.03
2018-08-13T03:45:31.358Z,100549.85
2018-08-13T03:45:53.537Z,100549.05
2018-08-13T03:46:15.293Z,100554.30
2018-08-13T03:46:37.074Z,100552.08
2018-08-13T03:46:58.835Z,100551.27
2018-08-13T03:47:20.968Z,100553.09
2018-08-13T03:47:43.015Z,100550.77
2018-08-13T03:48:04.786Z,100552.08
2018-08-13T03:48:26.576Z,100552.08
2018-08-13T03:48:48.323Z,100553.39
2018-08-13T03:49:11.738Z,100549.05
2018-08-13T03:49:33.491Z,100556.53
2018-08-13T03:49:55.240Z,100550.36
2018-08-13T03:50:17.011Z,100552.59
2018-08-13T03:50:38.765Z,100552.59
2018-08-13T03:51:00.535Z,100544.19
2018-08-13T03:51:22.459Z,100549.85
2018-08-13T03:51:44.210Z,100546.42
2018-08-13T03:52:05.957Z,100547.33
2018-08-13T03:52:27.721Z,100547.73
2018-08-13T03:52:49.488Z,100546.42
2018-08-13T03:53:11.283Z,100550.36
2018-08-13T03:53:33.581Z,100549.95
2018-08-13T03:53:55.403Z,100549.05
2018-08-13T03:54:17.117Z,100550.36
2018-08-13T03:54:38.888Z,100550.36
2018-08-13T03:55:00.654Z,100551.17
2018-08-13T03:55:22.429Z,100545.91
2018-08-13T03:55:44.303Z,100547.73
2018-08-13T03:56:06.072Z,100555.63
2018-08-13T03:56:27.823Z,100550.77
2018-08-13T03:56:49.577Z,100549.95
2018-08-13T03:57:11.357Z,100548.14
2018-08-13T03:57:33.115Z,100548.14
2018-08-13T03:57:55.538Z,100549.45
2018-08-13T03:58:17.314Z,100546.02
2018-08-13T03:58:39.070Z,100548.14
2018-08-13T03:59:00.840Z,100552.08
2018-08-13T03:59:29.175Z,100551.27
2018-08-13T03:59:50.941Z,100552.08
2018-08-13T04:00:16.170Z,100543.79
2018-08-13T04:00:37.924Z,100551.27
2018-08-13T04:00:59.684Z,100546.82
2018-08-13T04:01:21.430Z,100550.36
2018-08-13T04:01:43.178Z,100548.14
2018-08-13T04:02:04.922Z,100545.51
2018-08-13T04:02:26.763Z,100550.36
2018-08-13T04:02:48.515Z,100545.91
2018-08-13T04:03:10.254Z,100543.79
2018-08-13T04:03:32.031Z,100549.45
2018-08-13T04:03:53.786Z,100545.51
2018-08-13T04:04:15.556Z,100550.77
2018-08-13T04:04:37.669Z,100543.65
2018-08-13T04:04:59.431Z,100547.33
2018-08-13T04:05:21.189Z,100550.77
2018-08-13T04:05:42.951Z,100552.98
2018-08-13T04:06:04.716Z,100555.63
2018-08-13T04:06:26.482Z,100545.51
2018-08-13T04:06:48.744Z,100546.42
2018-08-13T04:07:10.487Z,100549.45
2018-08-13T04:07:32.255Z,100552.98
2018-08-13T04:07:54.011Z,100547.23
2018-08-13T04:08:15.777Z,100555.63
2018-08-13T04:08:37.550Z,100548.54
2018-08-13T04:08:59.857Z,100551.67
2018-08-13T04:09:21.610Z,100550.77
2018-08-13T04:09:44.631Z,100549.45
2018-08-13T04:10:06.390Z,100550.77
2018-08-13T04:10:28.150Z,100548.14
2018-08-13T04:10:50.475Z,100551.17
2018-08-13T04:11:12.234Z,100546.82
2018-08-13T04:11:33.999Z,100549.85
2018-08-13T04:11:55.765Z,100545.91
2018-08-13T04:12:17.524Z,100546.82
2018-08-13T04:12:41.131Z,100552.59
2018-08-13T04:13:02.960Z,100545.91
2018-08-13T04:13:24.670Z,100548.14
2018-08-13T04:13:46.452Z,100541.42
2018-08-13T04:14:09.105Z,100545.91
2018-08-13T04:14:30.913Z,100543.65
2018-08-13T04:14:52.662Z,100545.91
2018-08-13T04:15:15.167Z,100548.14
2018-08-13T04:15:36.918Z,100546.28